sensor_id;sensor_type;location;lat;lon;timestamp;pressure;altitude;pressure_sealevel;temperature;humidity
70229;BME280;57617;51.988;5.854;2023-10-13T00:01:58;100711.31;;;20.51;76.27
70229;BME280;57617;51.988;5.854;2023-10-13T00:04:28;100669.88;;;20.29;76.21
70229;BME280;57617;51.988;5.854;2023-10-13T00:06:54;100700.41;;;20.46;76.19
70229;BME280;57617;51.988;5.854;2023-10-13T00:09:21;100698.97;;;20.49;76.18
70229;BME280;57617;51.988;5.854;2023-10-13T00:11:50;100691.19;;;20.51;76.29
70229;BME280;57617;51.988;5.854;2023-10-13T00:14:17;100687.31;;;20.52;76.14
70229;BME280;57617;51.988;5.854;2023-10-13T00:16:43;100697.81;;;20.50;76.24
70229;BME280;57617;51.988;5.854;2023-10-13T00:19:25;100687.13;;;20.48;76.36
70229;BME280;57617;51.988;5.854;2023-10-13T00:21:52;100688.41;;;20.51;76.21
70229;BME280;57617;51.988;5.854;2023-10-13T00:24:20;100684.38;;;20.48;76.36
70229;BME280;57617;51.988;5.854;2023-10-13T00:26:48;100682.91;;;20.51;76.27
70229;BME280;57617;51.988;5.854;2023-10-13T00:29:14;100682.41;;;20.49;76.30
70229;BME280;57617;51.988;5.854;2023-10-13T00:31:42;100668.59;;;20.49;76.18
70229;BME280;57617;51.988;5.854;2023-10-13T00:34:10;100668.31;;;20.50;76.15
70229;BME280;57617;51.988;5.854;2023-10-13T00:36:56;100663.09;;;20.49;76.28
70229;BME280;57617;51.988;5.854;2023-10-13T00:39:42;100665.53;;;20.50;76.45
70229;BME280;57617;51.988;5.854;2023-10-13T00:42:10;100668.00;;;20.52;76.21
70229;BME280;57617;51.988;5.854;2023-10-13T00:44:50;100663.56;;;20.51;76.17
70229;BME280;57617;51.988;5.854;2023-10-13T00:47:19;100668.59;;;20.49;76.02
70229;BME280;57617;51.988;5.854;2023-10-13T00:50:10;100663.72;;;20.46;76.08
70229;BME280;57617;51.988;5.854;2023-10-13T00:52:40;100659.94;;;20.42;76.25
70229;BME280;57617;51.988;5.854;2023-10-13T00:55:06;100654.31;;;20.47;76.13
70229;BME280;57617;51.988;5.854;2023-10-13T00:57:33;100658.69;;;20.48;76.19
70229;BME280;57617;51.988;5.854;2023-10-13T01:00:00;100655.28;;;20.51;76.04
70229;BME280;57617;51.988;5.854;2023-10-13T01:02:44;100648.16;;;20.50;76.15
70229;BME280;57617;51.988;5.854;2023-10-13T01:05:10;100638.25;;;20.49;76.00
70229;BME280;57617;51.988;5.854;2023-10-13T01:07:44;100638.56;;;20.47;76.29
70229;BME280;57617;51.988;5.854;2023-10-13T01:10:11;100642.44;;;20.46;76.12
70229;BME280;57617;51.988;5.854;2023-10-13T01:12:39;100633.56;;;20.49;76.28
70229;BME280;57617;51.988;5.854;2023-10-13T01:15:04;100633.56;;;20.49;76.13
70229;BME280;57617;51.988;5.854;2023-10-13T01:17:32;100641.00;;;20.49;76.19
70229;BME280;57617;51.988;5.854;2023-10-13T01:19:58;100630.47;;;20.51;76.02
70229;BME280;57617;51.988;5.854;2023-10-13T01:22:24;100631.00;;;20.53;76.06
70229;BME280;57617;51.988;5.854;2023-10-13T01:24:49;100621.56;;;20.54;75.94
70229;BME280;57617;51.988;5.854;2023-10-13T01:27:14;100623.19;;;20.55;75.85
70229;BME280;57617;51.988;5.854;2023-10-13T01:29:44;100623.50;;;20.53;75.92
70229;BME280;57617;51.988;5.854;2023-10-13T01:32:19;100623.84;;;20.52;76.00
70229;BME280;57617;51.988;5.854;2023-10-13T01:34:44;100618.31;;;20.52;75.93
70229;BME280;57617;51.988;5.854;2023-10-13T01:37:12;100605.63;;;20.51;75.96
70229;BME280;57617;51.988;5.854;2023-10-13T01:39:37;100603.88;;;20.55;75.89
70229;BME280;57617;51.988;5.854;2023-10-13T01:42:02;100605.00;;;20.54;75.92
70229;BME280;57617;51.988;5.854;2023-10-13T01:44:28;100602.25;;;20.54;76.03
70229;BME280;57617;51.988;5.854;2023-10-13T01:46:59;100596.75;;;20.54;75.91
70229;BME280;57617;51.988;5.854;2023-10-13T01:49:24;100597.03;;;20.52;75.85
70229;BME280;57617;51.988;5.854;2023-10-13T01:51:50;100595.41;;;20.51;76.13
70229;BME280;57617;51.988;5.854;2023-10-13T01:54:15;100593.47;;;20.52;75.89
70229;BME280;57617;51.988;5.854;2023-10-13T01:56:41;100590.72;;;20.52;76.00
70229;BME280;57617;51.988;5.854;2023-10-13T01:59:12;100581.31;;;20.53;75.87
70229;BME280;57617;51.988;5.854;2023-10-13T02:01:37;100567.50;;;20.53;75.80
70229;BME280;57617;51.988;5.854;2023-10-13T02:04:03;100567.22;;;20.54;75.85
70229;BME280;57617;51.988;5.854;2023-10-13T02:06:29;100562.47;;;20.55;75.84
70229;BME280;57617;51.988;5.854;2023-10-13T02:08:57;100565.38;;;20.50;75.65
70229;BME280;57617;51.988;5.854;2023-10-13T02:11:27;100562.09;;;20.48;75.77
70229;BME280;57617;51.988;5.854;2023-10-13T02:13:52;100563.84;;;20.44;75.81
70229;BME280;57617;51.988;5.854;2023-10-13T02:16:19;100557.19;;;20.45;75.71
70229;BME280;57617;51.988;5.854;2023-10-13T02:18:46;100558.63;;;20.42;75.82
70229;BME280;57617;51.988;5.854;2023-10-13T02:21:16;100552.31;;;20.42;75.86
70229;BME280;57617;51.988;5.854;2023-10-13T02:23:41;100551.19;;;20.43;75.93
70229;BME280;57617;51.988;5.854;2023-10-13T02:26:10;100552.31;;;20.42;75.93
70229;BME280;57617;51.988;5.854;2023-10-13T02:28:40;100551.69;;;20.45;75.85
70229;BME280;57617;51.988;5.854;2023-10-13T02:31:05;100535.97;;;20.45;75.96
70229;BME280;57617;51.988;5.854;2023-10-13T02:33:31;100538.41;;;20.47;75.80
70229;BME280;57617;51.988;5.854;2023-10-13T02:36:01;100533.38;;;20.49;75.85
70229;BME280;57617;51.988;5.854;2023-10-13T02:38:33;100533.88;;;20.51;75.78
70229;BME280;57617;51.988;5.854;2023-10-13T02:41:09;100523.16;;;20.49;75.73
70229;BME280;57617;51.988;5.854;2023-10-13T02:43:35;100514.25;;;20.52;75.71
70229;BME280;57617;51.988;5.854;2023-10-13T02:46:01;100508.41;;;20.54;75.64
70229;BME280;57617;51.988;5.854;2023-10-13T02:48:27;100504.84;;;20.53;75.58
70229;BME280;57617;51.988;5.854;2023-10-13T02:50:58;100498.34;;;20.49;75.63
70229;BME280;57617;51.988;5.854;2023-10-13T02:53:27;100499.78;;;20.47;75.73
70229;BME280;57617;51.988;5.854;2023-10-13T02:55:53;100495.75;;;20.53;75.53
70229;BME280;57617;51.988;5.854;2023-10-13T02:58:20;100491.38;;;20.52;75.58
70229;BME280;57617;51.988;5.854;2023-10-13T03:00:46;100483.72;;;20.49;75.46
70229;BME280;57617;51.988;5.854;2023-10-13T03:03:11;100477.69;;;20.47;75.28
70229;BME280;57617;51.988;5.854;2023-10-13T03:05:39;100482.38;;;20.46;75.58
70229;BME280;57617;51.988;5.854;2023-10-13T03:08:05;100480.94;;;20.49;75.56
70229;BME280;57617;51.988;5.854;2023-10-13T03:10:31;100479.50;;;20.51;75.42
70229;BME280;57617;51.988;5.854;2023-10-13T03:12:57;100473.50;;;20.49;75.42
70229;BME280;57617;51.988;5.854;2023-10-13T03:15:22;100477.56;;;20.52;75.44
70229;BME280;57617;51.988;5.854;2023-10-13T03:17:55;100471.22;;;20.51;75.31
70229;BME280;57617;51.988;5.854;2023-10-13T03:20:23;100459.88;;;20.53;75.20
70229;BME280;57617;51.988;5.854;2023-10-13T03:22:57;100450.28;;;20.50;75.28
70229;BME280;57617;51.988;5.854;2023-10-13T03:25:22;100441.19;;;20.50;75.19
70229;BME280;57617;51.988;5.854;2023-10-13T03:27:53;100445.06;;;20.49;75.40
70229;BME280;57617;51.988;5.854;2023-10-13T03:30:19;100431.75;;;20.51;75.19
70229;BME280;57617;51.988;5.854;2023-10-13T03:32:46;100427.91;;;20.52;75.26
70229;BME280;57617;51.988;5.854;2023-10-13T03:35:13;100409.38;;;20.52;75.23
70229;BME280;57617;51.988;5.854;2023-10-13T03:37:42;100417.16;;;20.50;75.16
70229;BME280;57617;51.988;5.854;2023-10-13T03:40:08;100421.84;;;20.50;75.27
70229;BME280;57617;51.988;5.854;2023-10-13T03:42:46;100411.97;;;20.49;75.22
70229;BME280;57617;51.988;5.854;2023-10-13T03:45:24;100406.25;;;20.45;75.30
70229;BME280;57617;51.988;5.854;2023-10-13T03:47:50;100394.75;;;20.43;75.04
70229;BME280;57617;51.988;5.854;2023-10-13T03:50:16;100394.91;;;20.47;75.41
70229;BME280;57617;51.988;5.854;2023-10-13T03:52:47;100381.59;;;20.49;75.38
70229;BME280;57617;51.988;5.854;2023-10-13T03:55:13;100381.13;;;20.47;75.30
70229;BME280;57617;51.988;5.854;2023-10-13T03:57:42;100383.34;;;20.45;75.31
70229;BME280;57617;51.988;5.854;2023-10-13T04:00:08;100377.84;;;20.45;75.36
70229;BME280;57617;51.988;5.854;2023-10-13T04:02:34;100377.34;;;20.43;75.38
70229;BME280;57617;51.988;5.854;2023-10-13T04:05:01;100372.47;;;20.40;75.52
70229;BME280;57617;51.988;5.854;2023-10-13T04:07:33;100365.31;;;20.39;75.59
70229;BME280;57617;51.988;5.854;2023-10-13T04:10:04;100351.81;;;20.37;75.55
70229;BME280;57617;51.988;5.854;2023-10-13T04:12:48;100352.66;;;20.38;75.69
70229;BME280;57617;51.988;5.854;2023-10-13T04:15:32;100340.16;;;20.40;75.69
70229;BME280;57617;51.988;5.854;2023-10-13T04:18:26;100333.53;;;20.41;75.69
70229;BME280;57617;51.988;5.854;2023-10-13T04:20:59;100323.94;;;20.39;75.67
70229;BME280;57617;51.988;5.854;2023-10-13T04:23:35;100325.25;;;20.41;75.62
70229;BME280;57617;51.988;5.854;2023-10-13T04:26:20;100305.63;;;20.43;75.67
70229;BME280;57617;51.988;5.854;2023-10-13T04:28:46;100301.72;;;20.44;75.60
70229;BME280;57617;51.988;5.854;2023-10-13T04:31:17;100297.16;;;20.39;75.94
70229;BME280;57617;51.988;5.854;2023-10-13T04:34:05;100280.31;;;20.41;75.87
70229;BME280;57617;51.988;5.854;2023-10-13T04:36:40;100278.84;;;20.43;75.76
70229;BME280;57617;51.988;5.854;2023-10-13T04:39:10;100266.50;;;20.41;75.69
70229;BME280;57617;51.988;5.854;2023-10-13T04:41:39;100261.91;;;20.36;75.89
70229;BME280;57617;51.988;5.854;2023-10-13T04:44:08;100263.53;;;20.37;76.00
70229;BME280;57617;51.988;5.854;2023-10-13T04:46:52;100258.22;;;20.41;76.08
70229;BME280;57617;51.988;5.854;2023-10-13T04:49:23;100248.97;;;20.45;76.02
70229;BME280;57617;51.988;5.854;2023-10-13T04:51:51;100242.63;;;20.45;75.96
70229;BME280;57617;51.988;5.854;2023-10-13T04:54:35;100238.78;;;20.46;75.96
70229;BME280;57617;51.988;5.854;2023-10-13T04:57:13;100227.72;;;20.46;76.00
70229;BME280;57617;51.988;5.854;2023-10-13T04:59:48;100224.47;;;20.44;76.14
70229;BME280;57617;51.988;5.854;2023-10-13T05:02:32;100229.34;;;20.47;76.17
70229;BME280;57617;51.988;5.854;2023-10-13T05:05:01;100223.19;;;20.50;76.18
70229;BME280;57617;51.988;5.854;2023-10-13T05:07:46;100220.94;;;20.52;76.13
70229;BME280;57617;51.988;5.854;2023-10-13T05:10:31;100234.72;;;20.52;76.30
70229;BME280;57617;51.988;5.854;2023-10-13T05:13:15;100226.63;;;20.55;76.54
70229;BME280;57617;51.988;5.854;2023-10-13T05:15:59;100226.63;;;20.55;76.81
70229;BME280;57617;51.988;5.854;2023-10-13T05:18:43;100227.59;;;20.59;76.60
70229;BME280;57617;51.988;5.854;2023-10-13T05:21:27;100227.78;;;20.63;76.72
70229;BME280;57617;51.988;5.854;2023-10-13T05:24:11;100221.44;;;20.62;77.13
70229;BME280;57617;51.988;5.854;2023-10-13T05:26:56;100230.69;;;20.66;76.96
70229;BME280;57617;51.988;5.854;2023-10-13T05:29:53;100209.59;;;20.70;77.26
70229;BME280;57617;51.988;5.854;2023-10-13T05:32:37;100203.25;;;20.70;77.37
70229;BME280;57617;51.988;5.854;2023-10-13T05:35:21;100214.81;;;20.72;77.50
70229;BME280;57617;51.988;5.854;2023-10-13T05:38:05;100222.59;;;20.78;77.62
70229;BME280;57617;51.988;5.854;2023-10-13T05:43:42;100218.88;;;20.83;77.68
70229;BME280;57617;51.988;5.854;2023-10-13T05:46:26;100212.94;;;20.89;77.54
70229;BME280;57617;51.988;5.854;2023-10-13T05:48:51;100216.28;;;20.86;77.74
70229;BME280;57617;51.988;5.854;2023-10-13T05:51:23;100201.03;;;20.89;77.68
70229;BME280;57617;51.988;5.854;2023-10-13T05:53:58;100208.19;;;20.90;77.54
70229;BME280;57617;51.988;5.854;2023-10-13T05:56:42;100213.09;;;20.93;77.87
70229;BME280;57617;51.988;5.854;2023-10-13T05:59:26;100213.72;;;20.98;77.58
70229;BME280;57617;51.988;5.854;2023-10-13T06:02:10;100197.97;;;20.99;77.61
70229;BME280;57617;51.988;5.854;2023-10-13T06:04:54;100195.84;;;20.96;77.70
70229;BME280;57617;51.988;5.854;2023-10-13T06:07:38;100197.97;;;20.99;77.85
70229;BME280;57617;51.988;5.854;2023-10-13T06:10:22;100211.63;;;21.04;77.76
70229;BME280;57617;51.988;5.854;2023-10-13T06:13:07;100196.34;;;21.06;77.59
70229;BME280;57617;51.988;5.854;2023-10-13T06:15:51;100197.97;;;21.07;77.58
70229;BME280;57617;51.988;5.854;2023-10-13T06:18:35;100200.41;;;21.09;77.60
70229;BME280;57617;51.988;5.854;2023-10-13T06:21:19;100200.41;;;21.09;77.53
70229;BME280;57617;51.988;5.854;2023-10-13T06:24:04;100197.66;;;21.09;77.58
70229;BME280;57617;51.988;5.854;2023-10-13T06:26:47;100196.50;;;21.10;77.62
70229;BME280;57617;51.988;5.854;2023-10-13T06:29:31;100193.91;;;21.13;77.54
70229;BME280;57617;51.988;5.854;2023-10-13T06:31:58;100182.53;;;21.15;77.48
70229;BME280;57617;51.988;5.854;2023-10-13T06:34:23;100184.47;;;21.14;77.51
70229;BME280;57617;51.988;5.854;2023-10-13T06:37:03;100171.16;;;21.16;77.64
70229;BME280;57617;51.988;5.854;2023-10-13T06:39:28;100173.63;;;21.18;77.65
70229;BME280;57617;51.988;5.854;2023-10-13T06:42:00;100169.72;;;21.19;77.45
70229;BME280;57617;51.988;5.854;2023-10-13T06:44:25;100167.41;;;21.21;77.53
70229;BME280;57617;51.988;5.854;2023-10-13T06:46:51;100166.63;;;21.20;77.57
70229;BME280;57617;51.988;5.854;2023-10-13T06:49:17;100170.34;;;21.24;77.63
70229;BME280;57617;51.988;5.854;2023-10-13T06:51:43;100154.91;;;21.23;77.58
70229;BME280;57617;51.988;5.854;2023-10-13T06:54:11;100157.34;;;21.25;77.52
70229;BME280;57617;51.988;5.854;2023-10-13T06:56:44;100157.81;;;21.27;77.46
70229;BME280;57617;51.988;5.854;2023-10-13T06:59:10;100157.34;;;21.25;77.68
70229;BME280;57617;51.988;5.854;2023-10-13T07:01:39;100153.44;;;21.26;77.52
70229;BME280;57617;51.988;5.854;2023-10-13T07:04:08;100142.25;;;21.22;77.77
70229;BME280;57617;51.988;5.854;2023-10-13T07:06:40;100145.47;;;21.24;77.66
70229;BME280;57617;51.988;5.854;2023-10-13T07:09:09;100141.75;;;21.20;77.84
70229;BME280;57617;51.988;5.854;2023-10-13T07:11:44;100147.91;;;21.26;77.62
70229;BME280;57617;51.988;5.854;2023-10-13T07:14:09;100146.94;;;21.22;77.68
70229;BME280;57617;51.988;5.854;2023-10-13T07:16:55;100149.38;;;21.23;77.71
70229;BME280;57617;51.988;5.854;2023-10-13T07:19:23;100146.78;;;21.27;77.80
70229;BME280;57617;51.988;5.854;2023-10-13T07:21:50;100138.00;;;21.25;77.65
70229;BME280;57617;51.988;5.854;2023-10-13T07:24:23;100147.59;;;21.27;77.79
70229;BME280;57617;51.988;5.854;2023-10-13T07:26:49;100130.69;;;21.29;77.72
70229;BME280;57617;51.988;5.854;2023-10-13T07:29:22;100131.00;;;21.27;77.60
70229;BME280;57617;51.988;5.854;2023-10-13T07:31:49;100128.72;;;21.29;77.57
70229;BME280;57617;51.988;5.854;2023-10-13T07:34:15;100132.00;;;21.31;77.49
70229;BME280;57617;51.988;5.854;2023-10-13T07:36:54;100116.56;;;21.30;77.41
70229;BME280;57617;51.988;5.854;2023-10-13T07:39:24;100118.97;;;21.32;77.46
70229;BME280;57617;51.988;5.854;2023-10-13T07:41:50;100108.75;;;21.32;77.36
70229;BME280;57617;51.988;5.854;2023-10-13T07:44:33;100101.28;;;21.33;77.45
70229;BME280;57617;51.988;5.854;2023-10-13T07:46:59;100092.16;;;21.32;77.28
70229;BME280;57617;51.988;5.854;2023-10-13T07:49:31;100090.53;;;21.31;77.31
70229;BME280;57617;51.988;5.854;2023-10-13T07:52:00;100083.41;;;21.30;77.30
70229;BME280;57617;51.988;5.854;2023-10-13T07:54:43;100079.81;;;21.30;77.36
70229;BME280;57617;51.988;5.854;2023-10-13T07:57:08;100081.94;;;21.33;77.38
70229;BME280;57617;51.988;5.854;2023-10-13T07:59:33;100079.00;;;21.29;77.41
70229;BME280;57617;51.988;5.854;2023-10-13T08:02:12;100091.00;;;21.33;77.25
70229;BME280;57617;51.988;5.854;2023-10-13T08:04:37;100067.78;;;21.26;77.32
70229;BME280;57617;51.988;5.854;2023-10-13T08:07:02;100089.41;;;21.32;77.38
70229;BME280;57617;51.988;5.854;2023-10-13T08:09:37;100072.50;;;21.34;77.29
70229;BME280;57617;51.988;5.854;2023-10-13T08:12:05;100077.66;;;21.35;77.41
70229;BME280;57617;51.988;5.854;2023-10-13T08:14:32;100076.56;;;21.36;77.52
70229;BME280;57617;51.988;5.854;2023-10-13T08:16:59;100080.63;;;21.39;77.63
70229;BME280;57617;51.988;5.854;2023-10-13T08:19:29;100071.78;;;21.45;77.39
70229;BME280;57617;51.988;5.854;2023-10-13T08:22:04;100078.97;;;21.46;77.29
70229;BME280;57617;51.988;5.854;2023-10-13T08:24:45;100069.19;;;21.49;77.27
70229;BME280;57617;51.988;5.854;2023-10-13T08:27:11;100070.81;;;21.50;77.52
70229;BME280;57617;51.988;5.854;2023-10-13T08:29:41;100072.91;;;21.53;77.35
70229;BME280;57617;51.988;5.854;2023-10-13T08:32:24;100071.09;;;21.57;77.46
70229;BME280;57617;51.988;5.854;2023-10-13T08:34:53;100068.47;;;21.60;77.46
70229;BME280;57617;51.988;5.854;2023-10-13T08:37:18;100066.69;;;21.64;77.29
70229;BME280;57617;51.988;5.854;2023-10-13T08:39:47;100059.22;;;21.65;77.39
70229;BME280;57617;51.988;5.854;2023-10-13T08:42:28;100071.88;;;21.66;77.23
70229;BME280;57617;51.988;5.854;2023-10-13T08:47:45;100053.53;;;21.70;77.43
70229;BME280;57617;51.988;5.854;2023-10-13T08:50:18;100051.06;;;21.77;76.98
70229;BME280;57617;51.988;5.854;2023-10-13T08:53:12;100046.94;;;21.83;77.39
70229;BME280;57617;51.988;5.854;2023-10-13T08:58:33;100032.94;;;21.88;76.89
70229;BME280;57617;51.988;5.854;2023-10-13T09:01:17;100035.84;;;21.91;76.76
70229;BME280;57617;51.988;5.854;2023-10-13T09:04:02;100025.25;;;21.93;76.75
70229;BME280;57617;51.988;5.854;2023-10-13T09:06:50;100022.63;;;21.97;76.43
70229;BME280;57617;51.988;5.854;2023-10-13T09:09:25;100027.31;;;22.05;76.36
70229;BME280;57617;51.988;5.854;2023-10-13T09:11:59;100035.94;;;22.03;76.17
70229;BME280;57617;51.988;5.854;2023-10-13T09:14:43;100028.94;;;22.06;76.05
70229;BME280;57617;51.988;5.854;2023-10-13T09:17:22;100020.75;;;22.09;75.70
70229;BME280;57617;51.988;5.854;2023-10-13T09:20:00;100026.44;;;22.13;75.78
70229;BME280;57617;51.988;5.854;2023-10-13T09:22:44;100011.13;;;22.15;74.91
70229;BME280;57617;51.988;5.854;2023-10-13T09:25:21;100012.53;;;22.21;74.95
70229;BME280;57617;51.988;5.854;2023-10-13T09:27:48;100008.47;;;22.19;75.07
70229;BME280;57617;51.988;5.854;2023-10-13T09:30:16;100007.69;;;22.18;74.67
70229;BME280;57617;51.988;5.854;2023-10-13T09:32:58;99993.28;;;22.25;74.02
70229;BME280;57617;51.988;5.854;2023-10-13T09:35:26;99990.69;;;22.28;74.09
70229;BME280;57617;51.988;5.854;2023-10-13T09:37:52;99993.44;;;22.28;73.96
70229;BME280;57617;51.988;5.854;2023-10-13T09:40:21;99989.41;;;22.26;73.64
70229;BME280;57617;51.988;5.854;2023-10-13T09:43:02;99980.75;;;22.27;73.71
70229;BME280;57617;51.988;5.854;2023-10-13T09:45:34;99988.25;;;22.27;73.70
70229;BME280;57617;51.988;5.854;2023-10-13T09:48:08;99976.50;;;22.30;73.35
70229;BME280;57617;51.988;5.854;2023-10-13T09:50:41;99987.56;;;22.30;73.24
70229;BME280;57617;51.988;5.854;2023-10-13T09:53:10;99975.00;;;22.32;73.29
70229;BME280;57617;51.988;5.854;2023-10-13T09:55:40;99986.44;;;22.31;73.37
70229;BME280;57617;51.988;5.854;2023-10-13T09:58:09;99974.00;;;22.37;72.76
70229;BME280;57617;51.988;5.854;2023-10-13T10:00:37;99989.78;;;22.36;72.84
70229;BME280;57617;51.988;5.854;2023-10-13T10:03:07;99986.34;;;22.39;72.31
70229;BME280;57617;51.988;5.854;2023-10-13T10:05:56;99987.63;;;22.42;72.20
70229;BME280;57617;51.988;5.854;2023-10-13T10:08:29;99981.78;;;22.43;72.32
70229;BME280;57617;51.988;5.854;2023-10-13T10:11:14;99964.16;;;22.48;71.53
70229;BME280;57617;51.988;5.854;2023-10-13T10:13:47;99961.06;;;22.49;71.55
70229;BME280;57617;51.988;5.854;2023-10-13T10:16:19;99980.09;;;22.51;71.46
70229;BME280;57617;51.988;5.854;2023-10-13T10:18:47;99959.56;;;22.52;70.91
70229;BME280;57617;51.988;5.854;2023-10-13T10:21:32;99963.28;;;22.56;70.67
70229;BME280;57617;51.988;5.854;2023-10-13T10:23:58;99959.03;;;22.58;70.88
70229;BME280;57617;51.988;5.854;2023-10-13T10:26:24;99947.72;;;22.63;70.31
70229;BME280;57617;51.988;5.854;2023-10-13T10:28:50;99940.22;;;22.64;69.90
70229;BME280;57617;51.988;5.854;2023-10-13T10:31:15;99949.81;;;22.66;70.14
70229;BME280;57617;51.988;5.854;2023-10-13T10:33:42;99940.22;;;22.64;70.24
70229;BME280;57617;51.988;5.854;2023-10-13T10:36:08;99939.19;;;22.68;69.86
70229;BME280;57617;51.988;5.854;2023-10-13T10:39:00;99941.16;;;22.68;69.74
70229;BME280;57617;51.988;5.854;2023-10-13T10:41:25;99935.63;;;22.68;69.52
70229;BME280;57617;51.988;5.854;2023-10-13T10:43:54;99928.47;;;22.67;69.49
70229;BME280;57617;51.988;5.854;2023-10-13T10:46:29;99916.69;;;22.70;69.14
70229;BME280;57617;51.988;5.854;2023-10-13T10:49:03;99923.63;;;22.76;69.35
70229;BME280;57617;51.988;5.854;2023-10-13T10:51:30;99920.66;;;22.81;69.12
70229;BME280;57617;51.988;5.854;2023-10-13T10:53:59;99916.75;;;22.82;68.74
70229;BME280;57617;51.988;5.854;2023-10-13T10:56:36;99908.91;;;22.84;68.69
70229;BME280;57617;51.988;5.854;2023-10-13T10:59:02;99906.94;;;22.84;68.33
70229;BME280;57617;51.988;5.854;2023-10-13T11:01:29;99902.69;;;22.87;68.18
70229;BME280;57617;51.988;5.854;2023-10-13T11:04:09;99890.91;;;22.90;68.26
70229;BME280;57617;51.988;5.854;2023-10-13T11:06:44;99895.75;;;22.93;67.49
70229;BME280;57617;51.988;5.854;2023-10-13T11:09:10;99900.13;;;22.94;68.36
70229;BME280;57617;51.988;5.854;2023-10-13T11:11:51;99881.47;;;23.03;67.72
70229;BME280;57617;51.988;5.854;2023-10-13T11:14:28;99889.06;;;23.06;67.56
70229;BME280;57617;51.988;5.854;2023-10-13T11:16:54;99891.16;;;23.09;67.02
70229;BME280;57617;51.988;5.854;2023-10-13T11:19:20;99888.03;;;23.10;67.01
70229;BME280;57617;51.988;5.854;2023-10-13T11:21:46;99880.06;;;23.09;66.92
70229;BME280;57617;51.988;5.854;2023-10-13T11:24:12;99875.09;;;23.14;66.79
70229;BME280;57617;51.988;5.854;2023-10-13T11:26:37;99877.06;;;23.14;66.70
70229;BME280;57617;51.988;5.854;2023-10-13T11:29:30;99882.63;;;23.14;66.48
70229;BME280;57617;51.988;5.854;2023-10-13T11:31:56;99877.31;;;23.09;65.10
70229;BME280;57617;51.988;5.854;2023-10-13T11:34:25;99870.94;;;23.08;65.57
70229;BME280;57617;51.988;5.854;2023-10-13T11:36:50;99870.81;;;23.17;64.84
70229;BME280;57617;51.988;5.854;2023-10-13T11:39:15;99861.72;;;23.16;64.21
70229;BME280;57617;51.988;5.854;2023-10-13T11:41:49;99859.53;;;23.22;62.98
70229;BME280;57617;51.988;5.854;2023-10-13T11:44:21;99854.56;;;23.27;63.27
70229;BME280;57617;51.988;5.854;2023-10-13T11:46:46;99842.31;;;23.16;63.00
70229;BME280;57617;51.988;5.854;2023-10-13T11:49:11;99861.84;;;23.32;62.38
70229;BME280;57617;51.988;5.854;2023-10-13T11:51:43;99851.56;;;23.32;62.58
70229;BME280;57617;51.988;5.854;2023-10-13T11:54:15;99840.59;;;23.36;62.53
70229;BME280;57617;51.988;5.854;2023-10-13T11:56:40;99838.63;;;23.36;62.13
70229;BME280;57617;51.988;5.854;2023-10-13T11:59:06;99840.34;;;23.41;62.28
70229;BME280;57617;51.988;5.854;2023-10-13T12:01:31;99830.44;;;23.40;61.78
70229;BME280;57617;51.988;5.854;2023-10-13T12:04:15;99844.03;;;23.45;62.34
70229;BME280;57617;51.988;5.854;2023-10-13T12:07:19;99827.75;;;23.43;62.22
70229;BME280;57617;51.988;5.854;2023-10-13T12:09:52;99829.84;;;23.46;61.69
70229;BME280;57617;51.988;5.854;2023-10-13T12:12:20;99834.78;;;23.53;61.85
70229;BME280;57617;51.988;5.854;2023-10-13T12:14:46;99810.28;;;23.55;62.09
70229;BME280;57617;51.988;5.854;2023-10-13T12:17:21;99810.84;;;23.60;61.18
70229;BME280;57617;51.988;5.854;2023-10-13T12:20:07;99816.97;;;23.66;61.30
70229;BME280;57617;51.988;5.854;2023-10-13T12:22:37;99820.06;;;23.64;61.60
70229;BME280;57617;51.988;5.854;2023-10-13T12:25:08;99818.31;;;23.72;61.15
70229;BME280;57617;51.988;5.854;2023-10-13T12:27:52;99826.50;;;23.80;60.94
70229;BME280;57617;51.988;5.854;2023-10-13T12:30:21;99830.34;;;23.76;61.12
70229;BME280;57617;51.988;5.854;2023-10-13T12:33:13;99821.06;;;23.84;61.19
70229;BME280;57617;51.988;5.854;2023-10-13T12:35:41;99826.06;;;23.78;60.97
70229;BME280;57617;51.988;5.854;2023-10-13T12:38:23;99817.38;;;23.80;60.10
70229;BME280;57617;51.988;5.854;2023-10-13T12:41:04;99813.88;;;23.83;59.88
70229;BME280;57617;51.988;5.854;2023-10-13T12:43:47;99815.31;;;23.89;61.03
70229;BME280;57617;51.988;5.854;2023-10-13T12:46:31;99798.28;;;23.90;60.91
70229;BME280;57617;51.988;5.854;2023-10-13T12:49:15;99800.03;;;23.95;60.77
70229;BME280;57617;51.988;5.854;2023-10-13T12:51:59;99803.94;;;23.94;60.71
70229;BME280;57617;51.988;5.854;2023-10-13T12:54:25;99801.06;;;23.90;60.49
70229;BME280;57617;51.988;5.854;2023-10-13T12:57:00;99798.75;;;23.92;60.83
70229;BME280;57617;51.988;5.854;2023-10-13T12:59:25;99801.97;;;23.94;60.61
70229;BME280;57617;51.988;5.854;2023-10-13T13:01:51;99798.38;;;23.94;60.10
70229;BME280;57617;51.988;5.854;2023-10-13T13:04:17;99798.03;;;23.95;60.09
70229;BME280;57617;51.988;5.854;2023-10-13T13:06:49;99803.81;;;24.02;60.32
70229;BME280;57617;51.988;5.854;2023-10-13T13:09:14;99793.41;;;23.99;59.96
70229;BME280;57617;51.988;5.854;2023-10-13T13:11:40;99786.34;;;24.02;59.89
70229;BME280;57617;51.988;5.854;2023-10-13T13:14:06;99793.41;;;23.99;59.74
70229;BME280;57617;51.988;5.854;2023-10-13T13:16:32;99803.06;;;24.05;59.71
70229;BME280;57617;51.988;5.854;2023-10-13T13:18:58;99807.03;;;24.04;59.48
70229;BME280;57617;51.988;5.854;2023-10-13T13:21:23;99791.63;;;24.07;59.40
70229;BME280;57617;51.988;5.854;2023-10-13T13:23:49;99801.22;;;24.09;59.59
70229;BME280;57617;51.988;5.854;2023-10-13T13:26:14;99801.56;;;24.08;59.28
70229;BME280;57617;51.988;5.854;2023-10-13T13:28:43;99796.00;;;24.08;59.57